Time;durP1;ratioP1;P1;durP2;ratioP2;P2;SDS_P1;SDS_P2;PMS_P1;PMS_P2;Temp;Humidity;BMP_temperature;BMP_pressure;BME280_temperature;BME280_humidity;BME280_pressure;Samples;Min_cycle;Max_cycle;Signal;HPM_P1;HPM_P2
2022/11/16 00:01:43;;;;;;;15.65;12.13;;;;;;;18.60;61.47;100473.28;5052843;28;20052;-81
2022/11/16 00:04:11;;;;;;;15.38;12.30;;;;;;;18.60;61.29;100467.06;5053777;28;20047;-81
2022/11/16 00:06:38;;;;;;;19.27;12.32;;;;;;;18.59;61.43;100466.19;5053915;28;20048;-81
2022/11/16 00:09:22;;;;;;;18.00;12.23;;;;;;;18.60;61.36;100453.66;5053733;28;20052;-81
2022/11/16 00:11:54;;;;;;;14.23;11.25;;;;;;;18.59;61.45;100460.00;5054341;28;20048;-81
2022/11/16 00:14:23;;;;;;;15.25;10.50;;;;;;;18.59;61.39;100454.63;5053901;28;20064;-81
2022/11/16 00:16:51;;;;;;;16.98;12.88;;;;;;;18.59;61.27;100458.16;5052720;28;20420;-81
2022/11/16 00:19:18;;;;;;;14.15;11.32;;;;;;;18.60;61.32;100456.34;5052577;28;20049;-81
2022/11/16 00:21:46;;;;;;;15.25;11.43;;;;;;;18.58;61.37;100445.75;5053498;28;20044;-81
2022/11/16 00:24:15;;;;;;;13.52;11.30;;;;;;;18.59;61.21;100442.06;5054312;28;20056;-82
2022/11/16 00:26:42;;;;;;;15.15;12.02;;;;;;;18.58;61.26;100435.00;5053995;28;20052;-81
2022/11/16 00:29:19;;;;;;;14.07;11.40;;;;;;;18.58;61.32;100437.69;5053777;28;20055;-81
2022/11/16 00:31:46;;;;;;;14.10;10.98;;;;;;;18.59;61.21;100425.13;5052788;28;20045;-81
2022/11/16 00:34:14;;;;;;;12.40;10.57;;;;;;;18.58;61.22;100424.28;5053415;28;20385;-81
2022/11/16 00:36:42;;;;;;;12.82;11.23;;;;;;;18.58;61.29;100421.59;5055551;28;20056;-81
2022/11/16 00:39:12;;;;;;;13.82;11.20;;;;;;;18.57;61.19;100421.75;5060060;28;20426;-81
2022/11/16 00:41:40;;;;;;;13.40;11.40;;;;;;;18.58;61.25;100413.56;5060609;28;20045;-80
2022/11/16 00:44:08;;;;;;;16.02;11.45;;;;;;;18.57;61.24;100414.56;5059922;28;20049;-81
2022/11/16 00:46:36;;;;;;;13.73;11.05;;;;;;;18.56;61.09;100410.19;5058858;28;20063;-80
2022/11/16 00:49:04;;;;;;;13.73;11.40;;;;;;;18.56;60.93;100404.00;5060809;28;20053;-81
2022/11/16 00:51:33;;;;;;;14.55;10.82;;;;;;;18.57;61.09;100398.47;5042339;28;20048;-80
2022/11/16 00:54:01;;;;;;;13.60;10.48;;;;;;;18.55;61.16;100400.44;5059913;28;20044;-81
2022/11/16 00:56:29;;;;;;;13.63;11.40;;;;;;;18.56;61.18;100394.09;5042473;28;20053;-80
2022/11/16 00:58:57;;;;;;;12.30;10.13;;;;;;;18.56;61.16;100402.16;5058389;28;20057;-80
2022/11/16 01:01:24;;;;;;;13.07;11.27;;;;;;;18.56;61.13;100386.06;5058774;28;20045;-81
2022/11/16 01:03:51;;;;;;;13.77;11.90;;;;;;;18.56;61.10;100383.38;5059496;28;20060;-81
2022/11/16 01:06:19;;;;;;;12.60;10.82;;;;;;;18.56;61.06;100388.75;5058616;28;20419;-81
2022/11/16 01:08:46;;;;;;;12.60;11.30;;;;;;;18.56;60.97;100383.38;5058858;28;20053;-81
2022/11/16 01:14:03;;;;;;;14.30;12.05;;;;;;;18.55;61.15;100376.31;5059508;28;20404;-81
2022/11/16 01:16:31;;;;;;;13.63;11.15;;;;;;;18.55;60.92;100381.66;5058698;28;20053;-80
2022/11/16 01:18:59;;;;;;;12.45;10.80;;;;;;;18.56;60.81;100371.81;5059646;28;20052;-80
2022/11/16 01:21:26;;;;;;;13.50;10.95;;;;;;;18.55;61.32;100370.94;5058844;28;20056;-80
2022/11/16 01:23:55;;;;;;;12.15;9.80;;;;;;;18.55;61.27;100370.94;5058661;28;20415;-81
2022/11/16 01:26:23;;;;;;;11.93;10.63;;;;;;;18.56;61.16;100366.47;5060025;28;20051;-80
2022/11/16 01:28:51;;;;;;;15.15;11.70;;;;;;;18.54;61.17;100351.34;5058704;28;20071;-81
2022/11/16 01:31:19;;;;;;;13.45;10.13;;;;;;;18.54;61.25;100345.97;5058355;28;20485;-80
2022/11/16 01:33:49;;;;;;;12.35;10.38;;;;;;;18.55;61.19;100349.50;5058700;28;20055;-80
2022/11/16 01:36:21;;;;;;;14.00;10.50;;;;;;;18.54;61.25;100335.25;5058580;28;20508;-80
2022/11/16 01:38:49;;;;;;;14.85;11.77;;;;;;;18.55;61.15;100336.09;5060028;28;20048;-80
2022/11/16 01:41:22;;;;;;;13.70;10.43;;;;;;;18.56;61.28;100332.44;5058347;28;20049;-80
2022/11/16 01:43:59;;;;;;;11.77;10.45;;;;;;;18.53;61.19;100322.84;5060198;28;20579;-80
2022/11/16 01:46:39;;;;;;;12.95;10.90;;;;;;;18.55;61.11;100320.00;5058397;28;20049;-80
2022/11/16 01:49:13;;;;;;;13.43;11.18;;;;;;;18.54;61.22;100311.13;5054580;28;20500;-80
2022/11/16 01:51:46;;;;;;;12.23;10.40;;;;;;;18.55;61.47;100311.97;5055345;28;20377;-80
2022/11/16 01:54:15;;;;;;;12.02;10.50;;;;;;;18.54;61.13;100302.25;5055142;28;20049;-80
2022/11/16 01:56:54;;;;;;;11.73;10.52;;;;;;;18.53;61.11;100308.59;5054736;28;20060;-80
2022/11/16 01:59:56;;;;;;;12.07;9.73;;;;;;;18.55;61.16;100309.28;5053037;28;20056;-80
2022/11/16 02:02:26;;;;;;;11.32;9.27;;;;;;;18.53;61.13;100292.50;5055282;28;20056;-80
2022/11/16 02:04:55;;;;;;;11.93;9.98;;;;;;;18.54;61.04;100294.19;5055007;28;20053;-80
2022/11/16 02:11:38;;;;;;;11.75;9.98;;;;;;;18.55;61.05;100287.84;5054815;28;20049;-79
2022/11/16 02:14:41;;;;;;;11.07;9.45;;;;;;;18.54;61.04;100294.19;5054659;28;20057;-80
2022/11/16 02:17:55;;;;;;;12.90;10.23;;;;;;;18.53;61.13;100285.31;5054789;28;20057;-80
2022/11/16 02:20:59;;;;;;;10.90;9.68;;;;;;;18.53;60.97;100281.78;5014700;28;20049;-81
2022/11/16 02:23:59;;;;;;;10.98;9.65;;;;;;;18.54;61.05;100286.16;4997186;28;20432;-81
2022/11/16 02:26:55;;;;;;;11.07;9.70;;;;;;;18.53;61.11;100284.47;4997197;28;20073;-80
